sensor_id;sensor_type;location;lat;lon;timestamp;pressure;altitude;pressure_sealevel;temperature;humidity
61474;BME280;53694;49.784;30.150;2023-04-05T00:00:34;99361.69;;;6.68;72.17
61474;BME280;53694;49.784;30.150;2023-04-05T00:01:35;99365.77;;;6.74;72.19
61474;BME280;53694;49.784;30.150;2023-04-05T00:02:37;99361.34;;;6.82;71.98
61474;BME280;53694;49.784;30.150;2023-04-05T00:03:40;99355.31;;;6.88;71.83
61474;BME280;53694;49.784;30.150;2023-04-05T00:04:42;99364.05;;;6.94;70.85
61474;BME280;53694;49.784;30.150;2023-04-05T00:05:43;99352.78;;;6.95;71.05
61474;BME280;53694;49.784;30.150;2023-04-05T00:06:46;99360.84;;;7.04;71.06
61474;BME280;53694;49.784;30.150;2023-04-05T00:07:48;99354.34;;;7.09;70.59
61474;BME280;53694;49.784;30.150;2023-04-05T00:08:49;99359.13;;;7.12;70.36
61474;BME280;53694;49.784;30.150;2023-04-05T00:09:51;99358.22;;;7.08;70.18
61474;BME280;53694;49.784;30.150;2023-04-05T00:10:53;99355.05;;;7.06;70.50
61474;BME280;53694;49.784;30.150;2023-04-05T00:11:55;99361.42;;;7.10;69.99
61474;BME280;53694;49.784;30.150;2023-04-05T00:12:57;99359.48;;;7.10;69.94
61474;BME280;53694;49.784;30.150;2023-04-05T00:14:00;99355.96;;;7.10;69.86
61474;BME280;53694;49.784;30.150;2023-04-05T00:15:01;99349.38;;;6.98;70.34
61474;BME280;53694;49.784;30.150;2023-04-05T00:16:04;99350.53;;;6.85;70.92
61474;BME280;53694;49.784;30.150;2023-04-05T00:17:06;99348.48;;;6.58;71.61
61474;BME280;53694;49.784;30.150;2023-04-05T00:18:08;99356.20;;;6.31;72.33
61474;BME280;53694;49.784;30.150;2023-04-05T00:19:10;99356.86;;;6.16;73.09
61474;BME280;53694;49.784;30.150;2023-04-05T00:20:12;99352.64;;;6.06;73.57
61474;BME280;53694;49.784;30.150;2023-04-05T00:21:22;99350.39;;;6.08;73.97
61474;BME280;53694;49.784;30.150;2023-04-05T00:22:23;99356.76;;;6.12;73.83
61474;BME280;53694;49.784;30.150;2023-04-05T00:23:25;99348.36;;;6.17;73.82
61474;BME280;53694;49.784;30.150;2023-04-05T00:24:26;99353.23;;;6.24;73.50
61474;BME280;53694;49.784;30.150;2023-04-05T00:25:28;99350.41;;;6.33;73.67
61474;BME280;53694;49.784;30.150;2023-04-05T00:26:29;99347.56;;;6.41;73.37
61474;BME280;53694;49.784;30.150;2023-04-05T00:27:31;99347.13;;;6.51;72.83
61474;BME280;53694;49.784;30.150;2023-04-05T00:28:33;99347.38;;;6.59;72.46
61474;BME280;53694;49.784;30.150;2023-04-05T00:29:35;99341.33;;;6.65;72.56
61474;BME280;53694;49.784;30.150;2023-04-05T00:30:36;99333.92;;;6.78;72.18
61474;BME280;53694;49.784;30.150;2023-04-05T00:31:38;99337.32;;;6.87;71.61
61474;BME280;53694;49.784;30.150;2023-04-05T00:32:39;99340.63;;;6.93;71.38
61474;BME280;53694;49.784;30.150;2023-04-05T00:33:41;99334.93;;;6.98;71.15
61474;BME280;53694;49.784;30.150;2023-04-05T00:34:42;99338.45;;;6.98;70.79
61474;BME280;53694;49.784;30.150;2023-04-05T00:35:44;99336.16;;;7.00;70.79
61474;BME280;53694;49.784;30.150;2023-04-05T00:36:46;99330.92;;;7.08;70.79
61474;BME280;53694;49.784;30.150;2023-04-05T00:37:47;99333.64;;;7.08;70.43
61474;BME280;53694;49.784;30.150;2023-04-05T00:38:49;99337.06;;;7.05;70.26
61474;BME280;53694;49.784;30.150;2023-04-05T00:39:50;99329.45;;;7.10;70.77
61474;BME280;53694;49.784;30.150;2023-04-05T00:40:52;99333.62;;;7.20;70.55
61474;BME280;53694;49.784;30.150;2023-04-05T00:41:53;99329.73;;;7.21;69.82
61474;BME280;53694;49.784;30.150;2023-04-05T00:42:55;99327.47;;;7.23;69.70
61474;BME280;53694;49.784;30.150;2023-04-05T00:43:56;99325.86;;;7.22;69.26
61474;BME280;53694;49.784;30.150;2023-04-05T00:44:58;99338.42;;;7.11;69.60
61474;BME280;53694;49.784;30.150;2023-04-05T00:46:00;99334.81;;;6.94;70.50
61474;BME280;53694;49.784;30.150;2023-04-05T00:47:05;99327.33;;;6.67;71.00
61474;BME280;53694;49.784;30.150;2023-04-05T00:48:07;99339.49;;;6.33;72.11
61474;BME280;53694;49.784;30.150;2023-04-05T00:49:09;99336.16;;;6.03;73.18
61474;BME280;53694;49.784;30.150;2023-04-05T00:50:12;99329.95;;;5.81;74.33
61474;BME280;53694;49.784;30.150;2023-04-05T00:51:13;99326.20;;;5.73;75.09
61474;BME280;53694;49.784;30.150;2023-04-05T00:52:16;99321.33;;;5.79;75.33
61474;BME280;53694;49.784;30.150;2023-04-05T00:53:19;99325.42;;;5.85;75.21
61474;BME280;53694;49.784;30.150;2023-04-05T00:54:21;99320.70;;;5.94;75.06
61474;BME280;53694;49.784;30.150;2023-04-05T00:55:24;99321.42;;;6.04;74.62
61474;BME280;53694;49.784;30.150;2023-04-05T00:56:26;99330.61;;;6.11;74.23
61474;BME280;53694;49.784;30.150;2023-04-05T00:57:29;99318.13;;;6.22;74.26
61474;BME280;53694;49.784;30.150;2023-04-05T00:58:30;99323.25;;;6.36;74.00
61474;BME280;53694;49.784;30.150;2023-04-05T00:59:32;99316.66;;;6.49;73.40
61474;BME280;53694;49.784;30.150;2023-04-05T01:00:36;99311.55;;;6.60;73.13
61474;BME280;53694;49.784;30.150;2023-04-05T01:01:39;99304.50;;;6.71;72.69
61474;BME280;53694;49.784;30.150;2023-04-05T01:02:54;99309.47;;;6.82;72.38
61474;BME280;53694;49.784;30.150;2023-04-05T01:04:00;99302.30;;;6.89;71.45
61474;BME280;53694;49.784;30.150;2023-04-05T01:05:10;99297.63;;;6.90;71.35
61474;BME280;53694;49.784;30.150;2023-04-05T01:06:15;99302.41;;;6.93;71.15
61474;BME280;53694;49.784;30.150;2023-04-05T01:07:45;99300.91;;;6.95;71.19
61474;BME280;53694;49.784;30.150;2023-04-05T01:08:41;99294.77;;;6.98;71.00
61474;BME280;53694;49.784;30.150;2023-04-05T01:09:57;99294.52;;;7.04;70.80
61474;BME280;53694;49.784;30.150;2023-04-05T01:11:02;99292.58;;;7.04;70.37
61474;BME280;53694;49.784;30.150;2023-04-05T01:12:05;99283.38;;;6.96;70.43
61474;BME280;53694;49.784;30.150;2023-04-05T01:13:07;99282.27;;;6.97;70.60
61474;BME280;53694;49.784;30.150;2023-04-05T01:14:09;99285.10;;;7.01;71.00
61474;BME280;53694;49.784;30.150;2023-04-05T01:15:10;99294.88;;;7.02;70.46
61474;BME280;53694;49.784;30.150;2023-04-05T01:16:13;99294.77;;;6.98;70.51
61474;BME280;53694;49.784;30.150;2023-04-05T01:17:20;99291.58;;;6.96;70.32
61474;BME280;53694;49.784;30.150;2023-04-05T01:18:22;99285.43;;;6.99;70.75
61474;BME280;53694;49.784;30.150;2023-04-05T01:19:28;99294.63;;;7.07;70.80
61474;BME280;53694;49.784;30.150;2023-04-05T01:20:33;99290.42;;;7.10;70.06
61474;BME280;53694;49.784;30.150;2023-04-05T01:27:15;99294.09;;;7.01;70.24
61474;BME280;53694;49.784;30.150;2023-04-05T01:31:19;99290.48;;;6.85;70.88
61474;BME280;53694;49.784;30.150;2023-04-05T01:33:51;99294.55;;;6.91;71.13
61474;BME280;53694;49.784;30.150;2023-04-05T01:36:07;99286.69;;;7.02;70.65
61474;BME280;53694;49.784;30.150;2023-04-05T01:37:11;99287.70;;;7.10;70.23
61474;BME280;53694;49.784;30.150;2023-04-05T01:38:17;99282.67;;;7.12;70.10
61474;BME280;53694;49.784;30.150;2023-04-05T01:39:20;99279.14;;;7.11;70.15
61474;BME280;53694;49.784;30.150;2023-04-05T01:40:22;99279.25;;;7.15;70.17
61474;BME280;53694;49.784;30.150;2023-04-05T01:41:24;99280.47;;;7.17;69.76
61474;BME280;53694;49.784;30.150;2023-04-05T01:42:26;99279.39;;;7.06;69.23
61474;BME280;53694;49.784;30.150;2023-04-05T01:43:27;99279.06;;;6.95;70.05
61474;BME280;53694;49.784;30.150;2023-04-05T01:44:29;99270.69;;;6.88;70.31
61474;BME280;53694;49.784;30.150;2023-04-05T01:45:30;99282.98;;;6.70;70.73
61474;BME280;53694;49.784;30.150;2023-04-05T01:46:32;99283.13;;;6.49;71.77
61474;BME280;53694;49.784;30.150;2023-04-05T01:47:34;99289.73;;;6.36;72.25
61474;BME280;53694;49.784;30.150;2023-04-05T01:48:35;99287.23;;;6.31;72.82
61474;BME280;53694;49.784;30.150;2023-04-05T01:49:37;99279.96;;;6.35;72.79
61474;BME280;53694;49.784;30.150;2023-04-05T01:50:38;99294.16;;;6.40;72.74
61474;BME280;53694;49.784;30.150;2023-04-05T01:51:40;99286.88;;;6.44;72.56
61474;BME280;53694;49.784;30.150;2023-04-05T01:52:41;99283.24;;;6.53;72.69
61474;BME280;53694;49.784;30.150;2023-04-05T01:53:43;99287.55;;;6.66;72.42
61474;BME280;53694;49.784;30.150;2023-04-05T01:54:44;99292.76;;;6.71;71.40
61474;BME280;53694;49.784;30.150;2023-04-05T01:55:46;99287.30;;;6.71;71.86
61474;BME280;53694;49.784;30.150;2023-04-05T01:56:47;99283.66;;;6.79;71.84
61474;BME280;53694;49.784;30.150;2023-04-05T01:57:50;99292.86;;;6.87;71.54
61474;BME280;53694;49.784;30.150;2023-04-05T01:58:52;99290.59;;;6.89;71.00
61474;BME280;53694;49.784;30.150;2023-04-05T01:59:53;99295.83;;;6.82;70.71
61474;BME280;53694;49.784;30.150;2023-04-05T02:00:55;99286.38;;;6.79;71.32
61474;BME280;53694;49.784;30.150;2023-04-05T02:01:57;99295.94;;;6.85;71.18
61474;BME280;53694;49.784;30.150;2023-04-05T02:02:59;99290.67;;;6.92;71.27
61474;BME280;53694;49.784;30.150;2023-04-05T02:04:00;99283.84;;;6.98;70.76
61474;BME280;53694;49.784;30.150;2023-04-05T02:05:02;99287.83;;;7.01;70.47
61474;BME280;53694;49.784;30.150;2023-04-05T02:06:04;99290.64;;;7.05;70.57
61474;BME280;53694;49.784;30.150;2023-04-05T02:07:05;99286.55;;;7.11;70.47
61474;BME280;53694;49.784;30.150;2023-04-05T02:08:07;99285.86;;;7.14;70.04
61474;BME280;53694;49.784;30.150;2023-04-05T02:09:08;99290.17;;;7.15;69.84
61474;BME280;53694;49.784;30.150;2023-04-05T02:10:10;99297.58;;;7.14;69.63
61474;BME280;53694;49.784;30.150;2023-04-05T02:11:12;99296.31;;;7.12;69.83
61474;BME280;53694;49.784;30.150;2023-04-05T02:12:13;99292.47;;;7.00;69.85
61474;BME280;53694;49.784;30.150;2023-04-05T02:13:15;99292.63;;;6.80;70.58
61474;BME280;53694;49.784;30.150;2023-04-05T02:14:16;99302.81;;;6.55;71.57
61474;BME280;53694;49.784;30.150;2023-04-05T02:15:17;99294.73;;;6.21;72.51
61474;BME280;53694;49.784;30.150;2023-04-05T02:16:19;99292.49;;;5.90;73.75
61474;BME280;53694;49.784;30.150;2023-04-05T02:17:21;99297.95;;;5.78;74.79
61474;BME280;53694;49.784;30.150;2023-04-05T02:18:22;99287.05;;;5.78;75.20
61474;BME280;53694;49.784;30.150;2023-04-05T02:19:24;99293.19;;;5.87;75.10
61474;BME280;53694;49.784;30.150;2023-04-05T02:20:25;99296.29;;;5.98;74.81
61474;BME280;53694;49.784;30.150;2023-04-05T02:21:27;99291.64;;;6.11;74.42
61474;BME280;53694;49.784;30.150;2023-04-05T02:22:28;99284.73;;;6.25;74.25
61474;BME280;53694;49.784;30.150;2023-04-05T02:23:30;99282.92;;;6.42;73.73
61474;BME280;53694;49.784;30.150;2023-04-05T02:24:32;99287.23;;;6.55;73.07
61474;BME280;53694;49.784;30.150;2023-04-05T02:25:34;99286.86;;;6.69;72.53
61474;BME280;53694;49.784;30.150;2023-04-05T02:26:36;99281.03;;;6.83;71.90
61474;BME280;53694;49.784;30.150;2023-04-05T02:27:37;99275.93;;;6.81;71.18
61474;BME280;53694;49.784;30.150;2023-04-05T02:28:39;99271.70;;;6.84;71.32
61474;BME280;53694;49.784;30.150;2023-04-05T02:29:41;99272.27;;;6.89;71.26
61474;BME280;53694;49.784;30.150;2023-04-05T02:30:42;99275.00;;;6.89;70.80
61474;BME280;53694;49.784;30.150;2023-04-05T02:31:44;99273.50;;;6.92;70.98
61474;BME280;53694;49.784;30.150;2023-04-05T02:32:45;99273.17;;;6.93;70.54
61474;BME280;53694;49.784;30.150;2023-04-05T02:33:47;99271.92;;;6.91;70.51
61474;BME280;53694;49.784;30.150;2023-04-05T02:34:49;99271.92;;;6.91;70.45
61474;BME280;53694;49.784;30.150;2023-04-05T02:35:52;99274.29;;;6.92;70.67
61474;BME280;53694;49.784;30.150;2023-04-05T02:36:54;99276.80;;;6.97;70.78
61474;BME280;53694;49.784;30.150;2023-04-05T02:37:55;99279.72;;;7.05;70.33
61474;BME280;53694;49.784;30.150;2023-04-05T02:38:56;99286.08;;;7.09;70.41
61474;BME280;53694;49.784;30.150;2023-04-05T02:39:58;99279.50;;;7.10;69.90
61474;BME280;53694;49.784;30.150;2023-04-05T02:41:00;99284.25;;;7.13;69.93
61474;BME280;53694;49.784;30.150;2023-04-05T02:42:01;99278.78;;;7.13;69.79
61474;BME280;53694;49.784;30.150;2023-04-05T02:43:03;99282.56;;;7.08;69.90
61474;BME280;53694;49.784;30.150;2023-04-05T02:44:04;99282.84;;;6.91;70.20
61474;BME280;53694;49.784;30.150;2023-04-05T02:45:06;99280.39;;;6.61;70.99
61474;BME280;53694;49.784;30.150;2023-04-05T02:46:08;99289.05;;;6.26;72.07
61474;BME280;53694;49.784;30.150;2023-04-05T02:47:10;99289.73;;;5.99;73.16
61474;BME280;53694;49.784;30.150;2023-04-05T02:48:11;99286.47;;;5.85;74.08
61474;BME280;53694;49.784;30.150;2023-04-05T02:49:13;99286.83;;;5.83;74.52
61474;BME280;53694;49.784;30.150;2023-04-05T02:50:15;99283.20;;;5.91;74.75
61474;BME280;53694;49.784;30.150;2023-04-05T02:51:16;99277.33;;;6.01;74.30
61474;BME280;53694;49.784;30.150;2023-04-05T02:52:18;99278.48;;;6.13;74.31
61474;BME280;53694;49.784;30.150;2023-04-05T02:53:20;99267.12;;;6.23;73.89
61474;BME280;53694;49.784;30.150;2023-04-05T02:54:21;99260.88;;;6.35;73.66
61474;BME280;53694;49.784;30.150;2023-04-05T02:55:23;99269.84;;;6.47;73.15
61474;BME280;53694;49.784;30.150;2023-04-05T02:56:25;99263.80;;;6.54;72.62
61474;BME280;53694;49.784;30.150;2023-04-05T02:57:26;99252.67;;;6.59;72.30
61474;BME280;53694;49.784;30.150;2023-04-05T02:58:28;99257.53;;;6.66;71.89
61474;BME280;53694;49.784;30.150;2023-04-05T02:59:29;99250.25;;;6.70;71.80
61474;BME280;53694;49.784;30.150;2023-04-05T03:00:31;99247.27;;;6.75;71.64
61474;BME280;53694;49.784;30.150;2023-04-05T03:01:33;99245.47;;;6.67;71.11
61474;BME280;53694;49.784;30.150;2023-04-05T03:02:34;99246.50;;;6.62;71.52
61474;BME280;53694;49.784;30.150;2023-04-05T03:03:36;99247.32;;;6.63;71.68
61474;BME280;53694;49.784;30.150;2023-04-05T03:04:37;99249.81;;;6.68;71.81
61474;BME280;53694;49.784;30.150;2023-04-05T03:05:39;99242.52;;;6.72;71.46
61474;BME280;53694;49.784;30.150;2023-04-05T03:06:40;99241.38;;;6.73;71.21
61474;BME280;53694;49.784;30.150;2023-04-05T03:07:42;99243.69;;;6.59;71.14
61474;BME280;53694;49.784;30.150;2023-04-05T03:08:43;99238.91;;;6.56;71.95
61474;BME280;53694;49.784;30.150;2023-04-05T03:09:45;99248.24;;;6.55;71.40
61474;BME280;53694;49.784;30.150;2023-04-05T03:10:47;99249.58;;;6.61;71.78
61474;BME280;53694;49.784;30.150;2023-04-05T03:11:48;99247.76;;;6.65;71.81
61474;BME280;53694;49.784;30.150;2023-04-05T03:12:50;99257.39;;;6.74;71.60
61474;BME280;53694;49.784;30.150;2023-04-05T03:13:52;99257.07;;;6.76;71.31
61474;BME280;53694;49.784;30.150;2023-04-05T03:14:53;99251.37;;;6.81;71.49
61474;BME280;53694;49.784;30.150;2023-04-05T03:15:55;99246.91;;;6.89;71.23
61474;BME280;53694;49.784;30.150;2023-04-05T03:16:57;99239.05;;;6.87;70.49
61474;BME280;53694;49.784;30.150;2023-04-05T03:17:58;99241.23;;;6.82;70.46
61474;BME280;53694;49.784;30.150;2023-04-05T03:19:00;99234.09;;;6.77;70.70
61474;BME280;53694;49.784;30.150;2023-04-05T03:20:03;99235.23;;;6.76;70.99
61474;BME280;53694;49.784;30.150;2023-04-05T03:21:04;99226.37;;;6.67;70.97
61474;BME280;53694;49.784;30.150;2023-04-05T03:22:06;99219.34;;;6.54;71.35
61474;BME280;53694;49.784;30.150;2023-04-05T03:23:08;99216.86;;;6.48;71.77
61474;BME280;53694;49.784;30.150;2023-04-05T03:24:10;99219.95;;;6.47;71.77
61474;BME280;53694;49.784;30.150;2023-04-05T03:25:11;99218.69;;;6.44;71.67
61474;BME280;53694;49.784;30.150;2023-04-05T03:26:13;99209.72;;;6.44;72.39
61474;BME280;53694;49.784;30.150;2023-04-05T03:27:15;99216.43;;;6.46;72.07
61474;BME280;53694;49.784;30.150;2023-04-05T03:28:16;99215.41;;;6.39;72.16
61474;BME280;53694;49.784;30.150;2023-04-05T03:29:18;99203.70;;;6.38;72.39
61474;BME280;53694;49.784;30.150;2023-04-05T03:30:20;99212.57;;;6.35;72.46
61474;BME280;53694;49.784;30.150;2023-04-05T03:31:21;99211.78;;;6.35;72.59
61474;BME280;53694;49.784;30.150;2023-04-05T03:32:23;99213.04;;;6.37;72.37
61474;BME280;53694;49.784;30.150;2023-04-05T03:33:24;99207.23;;;6.39;72.29
61474;BME280;53694;49.784;30.150;2023-04-05T03:35:42;99207.27;;;6.67;72.33
61474;BME280;53694;49.784;30.150;2023-04-05T03:36:43;99206.97;;;6.56;72.15
61474;BME280;53694;49.784;30.150;2023-04-05T03:37:45;99212.31;;;6.53;71.72
61474;BME280;53694;49.784;30.150;2023-04-05T03:38:46;99211.31;;;6.33;72.17
61474;BME280;53694;49.784;30.150;2023-04-05T03:39:48;99215.31;;;6.23;72.80
61474;BME280;53694;49.784;30.150;2023-04-05T03:40:49;99215.98;;;6.20;72.90
61474;BME280;53694;49.784;30.150;2023-04-05T03:41:51;99214.52;;;6.22;73.21
61474;BME280;53694;49.784;30.150;2023-04-05T03:42:52;99211.91;;;6.26;73.04
61474;BME280;53694;49.784;30.150;2023-04-05T03:43:54;99221.11;;;6.34;72.91
61474;BME280;53694;49.784;30.150;2023-04-05T03:44:55;99207.58;;;6.37;72.68
61474;BME280;53694;49.784;30.150;2023-04-05T03:45:57;99219.37;;;6.41;72.50
61474;BME280;53694;49.784;30.150;2023-04-05T03:46:58;99212.91;;;6.46;72.38
61474;BME280;53694;49.784;30.150;2023-04-05T03:48:00;99216.08;;;6.48;72.26
61474;BME280;53694;49.784;30.150;2023-04-05T03:49:02;99218.25;;;6.42;71.92
61474;BME280;53694;49.784;30.150;2023-04-05T03:50:04;99217.11;;;6.43;72.46
61474;BME280;53694;49.784;30.150;2023-04-05T03:51:06;99213.34;;;6.48;72.25
61474;BME280;53694;49.784;30.150;2023-04-05T03:52:08;99219.34;;;6.54;72.25
61474;BME280;53694;49.784;30.150;2023-04-05T03:53:09;99217.31;;;6.63;72.15
61474;BME280;53694;49.784;30.150;2023-04-05T03:55:16;99219.62;;;6.89;71.60
61474;BME280;53694;49.784;30.150;2023-04-05T03:56:18;99223.47;;;6.88;71.51
61474;BME280;53694;49.784;30.150;2023-04-05T03:57:20;99216.21;;;6.80;70.60
61474;BME280;53694;49.784;30.150;2023-04-05T03:58:22;99209.58;;;6.53;70.91
61474;BME280;53694;49.784;30.150;2023-04-05T03:59:23;99210.31;;;6.37;71.69
61474;BME280;53694;49.784;30.150;2023-04-05T04:00:25;99221.66;;;6.27;72.32
61474;BME280;53694;49.784;30.150;2023-04-05T04:01:27;99220.88;;;6.26;72.57
61474;BME280;53694;49.784;30.150;2023-04-05T04:02:28;99226.45;;;6.30;72.68
61474;BME280;53694;49.784;30.150;2023-04-05T04:03:30;99222.09;;;6.41;72.58
61474;BME280;53694;49.784;30.150;2023-04-05T04:04:31;99220.98;;;6.42;72.12
61474;BME280;53694;49.784;30.150;2023-04-05T04:05:33;99217.66;;;6.49;72.33
61474;BME280;53694;49.784;30.150;2023-04-05T04:06:35;99216.30;;;6.55;71.97
61474;BME280;53694;49.784;30.150;2023-04-05T04:07:36;99217.09;;;6.56;71.48
61474;BME280;53694;49.784;30.150;2023-04-05T04:08:38;99228.45;;;6.45;71.65
61474;BME280;53694;49.784;30.150;2023-04-05T04:09:40;99218.93;;;6.39;71.92
61474;BME280;53694;49.784;30.150;2023-04-05T04:10:41;99225.97;;;6.40;72.05
61474;BME280;53694;49.784;30.150;2023-04-05T04:11:43;99211.19;;;6.41;72.14
61474;BME280;53694;49.784;30.150;2023-04-05T04:12:44;99209.72;;;6.44;72.19
61474;BME280;53694;49.784;30.150;2023-04-05T04:13:46;99211.66;;;6.43;71.85
61474;BME280;53694;49.784;30.150;2023-04-05T04:14:47;99214.38;;;6.43;72.17
61474;BME280;53694;49.784;30.150;2023-04-05T04:15:49;99209.60;;;6.40;71.92
61474;BME280;53694;49.784;30.150;2023-04-05T04:16:51;99200.27;;;6.41;72.26
61474;BME280;53694;49.784;30.150;2023-04-05T04:17:52;99206.20;;;6.43;71.88
61474;BME280;53694;49.784;30.150;2023-04-05T04:18:54;99212.09;;;6.45;72.08
61474;BME280;53694;49.784;30.150;2023-04-05T04:19:56;99207.64;;;6.53;72.24
61474;BME280;53694;49.784;30.150;2023-04-05T04:21:03;99210.84;;;6.55;71.73
61474;BME280;53694;49.784;30.150;2023-04-05T04:22:04;99203.45;;;6.56;71.49
61474;BME280;53694;49.784;30.150;2023-04-05T04:23:06;99198.89;;;6.60;71.71
61474;BME280;53694;49.784;30.150;2023-04-05T04:24:07;99205.50;;;6.59;71.12
61474;BME280;53694;49.784;30.150;2023-04-05T04:25:10;99199.81;;;6.51;71.37
61474;BME280;53694;49.784;30.150;2023-04-05T04:26:12;99205.70;;;6.54;71.46
61474;BME280;53694;49.784;30.150;2023-04-05T04:27:13;99208.00;;;6.51;71.59
61474;BME280;53694;49.784;30.150;2023-04-05T04:28:15;99207.53;;;6.49;71.62
61474;BME280;53694;49.784;30.150;2023-04-05T04:29:16;99210.05;;;6.55;71.78
61474;BME280;53694;49.784;30.150;2023-04-05T04:30:18;99203.77;;;6.54;71.33
61474;BME280;53694;49.784;30.150;2023-04-05T04:31:19;99206.17;;;6.56;71.69
61474;BME280;53694;49.784;30.150;2023-04-05T04:32:21;99197.63;;;6.57;71.56
61474;BME280;53694;49.784;30.150;2023-04-05T04:33:23;99204.78;;;6.62;71.59
61474;BME280;53694;49.784;30.150;2023-04-05T04:34:24;99201.80;;;6.67;71.37
61474;BME280;53694;49.784;30.150;2023-04-05T04:35:27;99205.57;;;6.62;70.97
61474;BME280;53694;49.784;30.150;2023-04-05T04:36:30;99200.03;;;6.59;71.08
61474;BME280;53694;49.784;30.150;2023-04-05T04:37:32;99206.97;;;6.56;71.30
61474;BME280;53694;49.784;30.150;2023-04-05T04:38:33;99203.20;;;6.61;71.35
61474;BME280;53694;49.784;30.150;2023-04-05T04:39:35;99212.53;;;6.60;71.38
61474;BME280;53694;49.784;30.150;2023-04-05T04:40:37;99208.55;;;6.57;71.27
61474;BME280;53694;49.784;30.150;2023-04-05T04:41:39;99211.62;;;6.56;71.22
61474;BME280;53694;49.784;30.150;2023-04-05T04:42:40;99206.97;;;6.56;71.41
61474;BME280;53694;49.784;30.150;2023-04-05T04:43:42;99211.73;;;6.59;71.31
61474;BME280;53694;49.784;30.150;2023-04-05T04:44:43;99209.02;;;6.59;71.20
61474;BME280;53694;49.784;30.150;2023-04-05T04:45:46;99207.41;;;6.58;71.37
61474;BME280;53694;49.784;30.150;2023-04-05T04:46:48;99201.40;;;6.53;71.38
61474;BME280;53694;49.784;30.150;2023-04-05T04:47:49;99207.20;;;6.51;71.63
61474;BME280;53694;49.784;30.150;2023-04-05T04:48:51;99201.64;;;6.47;71.64
61474;BME280;53694;49.784;30.150;2023-04-05T04:49:52;99205.95;;;6.48;71.78
61474;BME280;53694;49.784;30.150;2023-04-05T04:50:54;99209.83;;;6.47;71.47
61474;BME280;53694;49.784;30.150;2023-04-05T04:51:55;99205.97;;;6.36;71.62
61474;BME280;53694;49.784;30.150;2023-04-05T04:53:00;99201.66;;;6.35;71.97
61474;BME280;53694;49.784;30.150;2023-04-05T04:54:02;99205.65;;;6.38;72.27
61474;BME280;53694;49.784;30.150;2023-04-05T04:55:05;99205.30;;;6.39;72.15
61474;BME280;53694;49.784;30.150;2023-04-05T04:56:08;99206.55;;;6.42;71.93
61474;BME280;53694;49.784;30.150;2023-04-05T04:57:09;99208.13;;;6.43;71.95
61474;BME280;53694;49.784;30.150;2023-04-05T04:58:12;99206.44;;;6.38;71.77
61474;BME280;53694;49.784;30.150;2023-04-05T04:59:13;99205.86;;;6.33;71.84
61474;BME280;53694;49.784;30.150;2023-04-05T05:00:15;99210.08;;;6.30;72.15
61474;BME280;53694;49.784;30.150;2023-04-05T05:01:17;99193.25;;;6.28;72.08
61474;BME280;53694;49.784;30.150;2023-04-05T05:02:23;99196.69;;;6.25;72.47
61474;BME280;53694;49.784;30.150;2023-04-05T05:03:25;99213.84;;;6.25;72.22
61474;BME280;53694;49.784;30.150;2023-04-05T05:04:26;99209.41;;;6.21;72.42
61474;BME280;53694;49.784;30.150;2023-04-05T05:05:28;99201.91;;;6.18;72.59
61474;BME280;53694;49.784;30.150;2023-04-05T05:06:29;99199.86;;;6.15;72.77
61474;BME280;53694;49.784;30.150;2023-04-05T05:07:31;99204.99;;;6.16;72.69
61474;BME280;53694;49.784;30.150;2023-04-05T05:08:33;99197.92;;;6.15;72.81
61474;BME280;53694;49.784;30.150;2023-04-05T05:09:35;99191.44;;;6.20;72.80
61474;BME280;53694;49.784;30.150;2023-04-05T05:10:36;99192.59;;;6.19;72.72
61474;BME280;53694;49.784;30.150;2023-04-05T05:11:38;99184.87;;;6.21;72.26
61474;BME280;53694;49.784;30.150;2023-04-05T05:12:39;99191.56;;;6.11;72.50
61474;BME280;53694;49.784;30.150;2023-04-05T05:13:41;99185.00;;;6.12;73.20
61474;BME280;53694;49.784;30.150;2023-04-05T05:14:42;99175.79;;;6.17;72.92
61474;BME280;53694;49.784;30.150;2023-04-05T05:15:44;99176.34;;;6.22;72.69
61474;BME280;53694;49.784;30.150;2023-04-05T05:16:45;99183.48;;;6.27;72.52
61474;BME280;53694;49.784;30.150;2023-04-05T05:17:47;99180.52;;;6.32;72.48
61474;BME280;53694;49.784;30.150;2023-04-05T05:18:51;99186.88;;;6.36;72.24
61474;BME280;53694;49.784;30.150;2023-04-05T05:19:54;99185.77;;;6.37;71.92
61474;BME280;53694;49.784;30.150;2023-04-05T05:20:56;99190.98;;;6.42;71.80
61474;BME280;53694;49.784;30.150;2023-04-05T05:21:57;99194.61;;;6.46;72.27
61474;BME280;53694;49.784;30.150;2023-04-05T05:22:58;99184.81;;;6.45;71.46
61474;BME280;53694;49.784;30.150;2023-04-05T05:24:00;99184.73;;;6.42;71.58
61474;BME280;53694;49.784;30.150;2023-04-05T05:25:07;99182.33;;;6.40;71.44
61474;BME280;53694;49.784;30.150;2023-04-05T05:26:07;99183.91;;;6.41;71.69
61474;BME280;53694;49.784;30.150;2023-04-05T05:27:08;99183.23;;;6.44;71.80
61474;BME280;53694;49.784;30.150;2023-04-05T05:28:10;99185.71;;;6.49;71.52
61474;BME280;53694;49.784;30.150;2023-04-05T05:29:11;99187.10;;;6.43;71.13
61474;BME280;53694;49.784;30.150;2023-04-05T05:30:13;99183.58;;;6.43;71.46
61474;BME280;53694;49.784;30.150;2023-04-05T05:31:15;99179.36;;;6.45;71.18
61474;BME280;53694;49.784;30.150;2023-04-05T05:32:16;99180.50;;;6.44;71.36
61474;BME280;53694;49.784;30.150;2023-04-05T05:33:18;99173.00;;;6.41;71.39
61474;BME280;53694;49.784;30.150;2023-04-05T05:34:20;99183.36;;;6.36;71.41
61474;BME280;53694;49.784;30.150;2023-04-05T05:35:21;99177.58;;;6.37;71.48
61474;BME280;53694;49.784;30.150;2023-04-05T05:36:23;99169.72;;;6.36;71.75
61474;BME280;53694;49.784;30.150;2023-04-05T05:37:29;99175.29;;;6.39;71.78
61474;BME280;53694;49.784;30.150;2023-04-05T05:38:31;99177.77;;;6.44;71.36
61474;BME280;53694;49.784;30.150;2023-04-05T05:39:33;99177.77;;;6.44;71.40
61474;BME280;53694;49.784;30.150;2023-04-05T05:40:34;99185.63;;;6.46;71.48
61474;BME280;53694;49.784;30.150;2023-04-05T05:41:36;99191.17;;;6.49;71.31
61474;BME280;53694;49.784;30.150;2023-04-05T05:42:37;99188.22;;;6.55;70.85